Funkstown, MD (21734)

9:25 PM EDT on October 24, 2014 (GMT -0400)
Hagerstown 1E - Pangborn Blvd. | Change Station
CLOSE
Current Station
Personal Weather Station
Location: Hagerstown, MD
Elevation: 537 ft
Nearby Weather Stations

Elev 537 ft 39.64 °N, 77.70 °W | Updated 13 seconds ago

Partly Cloudy
Partly Cloudy
50.9 °F
Feels Like 50.9 °F
N
0.0
Wind Variable Wind from NW
Gusts 1.0 mph

Today
High -- | Low -- °F
--% Chance of Precip.
Yesterday
High -- | Low -- °F
Precip. -- in
7:30 AM 6:19 PM
New Moon, 1% visible
Pressure 29.99 in
Visibility 10.0 miles
Clouds Clear
Dew Point 38 °F
Humidity 60%
Rainfall 0.00 in
Snow Depth Not available.
UV 0 out of 12
Pollen 2.20 out of 12
Air Quality Not available.
Flu Activity Sporadic
METAR KHGR 250053Z AUTO 30006KT 10SM CLR 11/03 A2996 RMK AO2 SLP156 T01060028

More Conditions Fewer Conditions

Pressure 29.99 in
Visibility 10.0 miles
Clouds Clear
Dew Point 38 °F
Humidity 60%
Rainfall 0.00 in
Snow Depth Not available.
UV 0 out of 12
Pollen 2.20 out of 12
Air Quality Not available.
Flu Activity Sporadic
METAR KHGR 250053Z AUTO 30006KT 10SM CLR 11/03 A2996 RMK AO2 SLP156 T01060028

More Conditions Fewer Conditions

10-Day Weather Forecast

Almanac

Astronomy

Oct. 24, 2014 Rise Set
Actual Time 7:30 AM EDT 6:19 PM EDT
Civil Twilight 7:02 AM EDT 6:46 PM EDT
Nautical Twilight 6:31 AM EDT 7:17 PM EDT
Astronomical Twilight 6:00 AM EDT 7:49 PM EDT
Moon 8:07 AM EDT (10/24) 6:57 PM EDT (10/24)
Length of Visible Light 11h 43m
Length of Day
10h 48m
Tomorrow will be 2m 24s shorter.
New Moon, 1% of the Moon is Illuminated
Today
New Moon
Oct 30
First Quarter
Nov 6
Full
Nov 14
Last Quarter
Nov 22
New

Today's Extremes

State Highs State Lows

Community

WunderPhotos

Upload Photos

1,764,741 photos uploaded!

WunderBlogs® & News

Nearby

Snow Depth

Station Depth Elevation
No new snow has been reported.

Earthquake Activity

City Distance Mag. Time & Date
No recent earthquake activity has been reported nearby.
Minimum magnitude displayed is 2.5.

Coastal Water Temperatures

Place Temperature
No Stations Reporting

Nearby Weather Stations